Time;durP1;ratioP1;P1;durP2;ratioP2;P2;SDS_P1;SDS_P2;PMS_P1;PMS_P2;Temp;Humidity;BMP_temperature;BMP_pressure;BME280_temperature;BME280_humidity;BME280_pressure;Samples;Min_cycle;Max_cycle;Signal;HPM_P1;HPM_P2
2023/01/03 00:02:33;;;;;;;5.95;3.75;;;;;;;6.64;100.00;101433.41;6187406;28;20424;-87
2023/01/03 00:05:35;;;;;;;10.18;3.72;;;;;;;6.68;100.00;101427.22;6184056;28;20367;-87
2023/01/03 00:08:36;;;;;;;7.97;3.47;;;;;;;6.74;100.00;101436.38;6179557;28;20463;-87
2023/01/03 00:15:00;;;;;;;4.45;2.67;;;;;;;6.78;100.00;101434.47;6188290;28;20035;-87
2023/01/03 00:18:02;;;;;;;3.38;2.20;;;;;;;6.84;100.00;101435.03;6180436;28;20588;-87
2023/01/03 00:21:04;;;;;;;4.68;2.55;;;;;;;6.75;100.00;101442.34;6168307;28;20268;-87
2023/01/03 00:24:07;;;;;;;7.10;2.47;;;;;;;6.71;100.00;101441.69;6186532;28;20046;-86
2023/01/03 00:27:10;;;;;;;4.57;2.20;;;;;;;6.64;100.00;101443.69;6183587;28;20046;-87
2023/01/03 00:30:12;;;;;;;4.47;2.25;;;;;;;6.50;100.00;101453.81;6187087;28;20078;-87
2023/01/03 00:33:13;;;;;;;6.97;2.58;;;;;;;6.53;100.00;101439.97;6154161;28;20057;-87
2023/01/03 00:36:15;;;;;;;5.60;2.30;;;;;;;6.35;100.00;101447.63;6185811;28;20203;-87
2023/01/03 00:39:17;;;;;;;5.38;2.58;;;;;;;6.33;100.00;101453.75;6182734;28;20473;-87
2023/01/03 00:42:19;;;;;;;4.60;2.50;;;;;;;6.15;100.00;101463.16;6186968;28;20070;-87
2023/01/03 00:45:22;;;;;;;5.40;2.70;;;;;;;6.00;100.00;101464.66;6184562;28;20283;-87
2023/01/03 00:48:27;;;;;;;5.60;2.95;;;;;;;5.97;100.00;101469.97;6187081;28;20043;-87
2023/01/03 00:51:31;;;;;;;6.22;2.78;;;;;;;6.01;100.00;101471.47;6186296;28;20376;-87
2023/01/03 00:54:33;;;;;;;3.50;2.55;;;;;;;5.93;100.00;101473.53;6187642;28;20062;-87
2023/01/03 00:57:34;;;;;;;8.23;2.70;;;;;;;5.87;100.00;101472.06;6186052;28;20069;-86
2023/01/03 01:00:36;;;;;;;5.97;2.60;;;;;;;5.84;100.00;101477.34;6168492;28;20425;-87
2023/01/03 01:03:48;;;;;;;6.20;2.53;;;;;;;5.83;100.00;101481.63;6187150;28;20575;-86
2023/01/03 01:06:53;;;;;;;8.02;2.80;;;;;;;5.77;100.00;101487.03;6186460;28;20449;-87
2023/01/03 01:09:55;;;;;;;7.85;2.78;;;;;;;5.69;100.00;101490.81;6186952;28;20042;-87
2023/01/03 01:12:56;;;;;;;7.18;3.03;;;;;;;5.61;100.00;101496.28;6169316;28;20339;-87
2023/01/03 01:16:01;;;;;;;4.97;2.78;;;;;;;5.69;100.00;101496.81;6184720;28;20128;-87
2023/01/03 01:19:03;;;;;;;6.18;2.65;;;;;;;5.64;100.00;101490.19;6185382;28;20252;-87
2023/01/03 01:22:05;;;;;;;6.28;3.00;;;;;;;5.62;100.00;101497.97;6186366;28;20049;-87
2023/01/03 01:25:06;;;;;;;5.93;3.03;;;;;;;5.63;100.00;101520.19;6184909;28;20547;-87
2023/01/03 01:28:08;;;;;;;6.10;3.00;;;;;;;5.60;100.00;101515.19;6186303;28;20046;-87
2023/01/03 01:31:15;;;;;;;6.65;2.75;;;;;;;5.56;100.00;101523.91;6186511;28;20057;-86
2023/01/03 01:34:17;;;;;;;7.80;2.72;;;;;;;5.52;100.00;101522.38;6186143;28;20105;-86
2023/01/03 01:37:19;;;;;;;6.97;3.10;;;;;;;5.37;100.00;101524.69;6183597;28;20050;-86
2023/01/03 01:40:20;;;;;;;4.38;3.13;;;;;;;5.35;100.00;101539.31;6185446;28;20400;-87
2023/01/03 01:46:44;;;;;;;4.10;2.88;;;;;;;5.23;100.00;101555.22;6185533;28;20050;-86
2023/01/03 01:49:48;;;;;;;6.13;2.70;;;;;;;5.17;100.00;101556.28;6176466;28;20053;-87
2023/01/03 01:53:11;;;;;;;6.85;3.00;;;;;;;5.14;100.00;101560.69;6162170;28;20557;-86
2023/01/03 01:56:21;;;;;;;6.72;3.20;;;;;;;5.09;100.00;101560.91;6164778;28;20181;-87
2023/01/03 01:59:22;;;;;;;5.63;2.80;;;;;;;5.12;100.00;101565.06;6180426;28;20410;-87
2023/01/03 02:02:24;;;;;;;5.47;2.95;;;;;;;5.08;100.00;101566.09;6182288;28;20046;-87
2023/01/03 02:05:27;;;;;;;5.05;2.67;;;;;;;4.99;100.00;101571.56;6185005;28;20053;-85
2023/01/03 02:08:29;;;;;;;4.82;2.88;;;;;;;4.85;100.00;101583.19;6177732;28;20050;-86
2023/01/03 02:11:37;;;;;;;4.55;2.72;;;;;;;4.74;100.00;101580.19;6178653;28;20154;-86
2023/01/03 02:14:55;;;;;;;6.90;2.70;;;;;;;4.63;100.00;101590.03;6180969;28;20051;-86
2023/01/03 02:18:29;;;;;;;7.05;2.90;;;;;;;4.51;100.00;101607.53;6171955;28;20113;-86
2023/01/03 02:22:05;;;;;;;3.90;2.55;;;;;;;4.43;100.00;101608.69;6181540;28;20057;-86
2023/01/03 02:25:28;;;;;;;5.10;2.85;;;;;;;4.34;100.00;101621.84;6184989;28;20144;-86
2023/01/03 02:28:49;;;;;;;8.40;3.17;;;;;;;4.28;100.00;101638.28;6178104;28;20073;-86
2023/01/03 02:32:02;;;;;;;4.50;2.83;;;;;;;4.29;100.00;101633.06;6159964;28;20174;-86
2023/01/03 02:35:50;;;;;;;5.63;3.08;;;;;;;4.29;100.00;101637.38;6183071;28;20285;-86
2023/01/03 02:39:10;;;;;;;6.60;3.33;;;;;;;4.17;100.00;101646.31;6063198;29;20098;-86
2023/01/03 02:46:06;;;;;;;4.22;3.05;;;;;;;4.25;100.00;101638.38;6056000;29;20085;-86
2023/01/03 02:49:34;;;;;;;9.60;3.45;;;;;;;4.35;100.00;101632.06;6062966;29;20064;-86
2023/01/03 02:52:40;;;;;;;8.77;4.07;;;;;;;4.37;100.00;101631.97;6063186;29;20463;-86
2023/01/03 02:55:43;;;;;;;10.77;3.92;;;;;;;4.34;100.00;101625.22;6048415;29;20466;-86
2023/01/03 02:58:51;;;;;;;10.10;3.58;;;;;;;4.33;100.00;101633.81;6063088;29;20044;-85
2023/01/03 03:01:53;;;;;;;10.23;4.55;;;;;;;4.30;100.00;101637.34;6062438;29;20470;-86
2023/01/03 03:04:56;;;;;;;7.35;4.95;;;;;;;4.31;100.00;101651.81;6061742;29;20046;-86
2023/01/03 03:07:58;;;;;;;9.55;5.00;;;;;;;4.35;100.00;101651.69;6064240;29;20135;-86
2023/01/03 03:14:34;;;;;;;8.07;4.73;;;;;;;4.37;100.00;101648.19;6138880;28;20055;-86
2023/01/03 03:17:37;;;;;;;9.52;4.78;;;;;;;4.32;100.00;101652.63;6190086;28;20054;-86
2023/01/03 03:31:35;;;;;;;9.13;4.97;;;;;;;4.71;100.00;101634.19;6068777;29;20060;-85
2023/01/03 03:34:38;;;;;;;10.18;5.28;;;;;;;4.75;100.00;101628.06;6075070;29;20080;-85
2023/01/03 03:37:44;;;;;;;10.68;5.15;;;;;;;4.82;100.00;101631.19;6069148;29;20060;-85
2023/01/03 03:47:58;;;;;;;10.63;6.50;;;;;;;4.88;100.00;101624.13;6070152;29;20115;-85
2023/01/03 03:51:07;;;;;;;11.70;6.13;;;;;;;4.84;100.00;101630.25;6070750;29;20101;-85
2023/01/03 03:54:14;;;;;;;13.75;7.00;;;;;;;4.77;100.00;101628.84;6079103;29;20122;-85
2023/01/03 03:57:22;;;;;;;12.15;6.25;;;;;;;4.71;100.00;101632.44;6097539;28;20786;-85
2023/01/03 04:00:30;;;;;;;11.95;6.38;;;;;;;4.59;100.00;101632.06;6188131;28;20043;-85
2023/01/03 04:03:33;;;;;;;12.13;5.68;;;;;;;4.46;100.00;101642.75;6173459;28;20046;-85
2023/01/03 04:06:40;;;;;;;11.45;5.97;;;;;;;4.43;100.00;101652.28;6171336;28;20153;-85
2023/01/03 04:09:42;;;;;;;12.48;6.07;;;;;;;4.36;100.00;101654.22;6188105;28;20045;-85
2023/01/03 04:12:46;;;;;;;10.20;6.72;;;;;;;4.32;100.00;101662.88;6170707;28;20046;-85
2023/01/03 04:15:48;;;;;;;11.48;6.50;;;;;;;4.26;100.00;101670.81;6166786;28;20496;-85
2023/01/03 04:18:49;;;;;;;11.48;6.65;;;;;;;4.21;100.00;101686.34;6188392;28;20065;-85
2023/01/03 04:21:51;;;;;;;13.65;6.70;;;;;;;4.17;100.00;101692.44;6188355;28;20606;-85
2023/01/03 04:24:53;;;;;;;15.10;6.75;;;;;;;4.12;100.00;101694.31;6187386;28;20039;-85
2023/01/03 04:27:55;;;;;;;10.82;6.32;;;;;;;4.02;100.00;101705.75;6188132;28;20046;-85
2023/01/03 04:30:56;;;;;;;14.82;7.75;;;;;;;4.01;100.00;101704.09;6176804;28;20027;-85
2023/01/03 04:33:58;;;;;;;13.02;7.03;;;;;;;3.96;100.00;101709.38;6164577;28;20049;-85
2023/01/03 04:37:00;;;;;;;11.55;6.57;;;;;;;3.91;100.00;101710.41;6167326;28;20039;-85
2023/01/03 04:40:02;;;;;;;13.27;6.97;;;;;;;3.90;100.00;101717.25;6180292;28;20065;-85
2023/01/03 04:46:24;;;;;;;10.57;6.55;;;;;;;3.90;100.00;101714.69;6179039;28;20057;-85
2023/01/03 04:49:26;;;;;;;14.02;6.95;;;;;;;3.86;100.00;101720.78;6177361;28;20046;-85
2023/01/03 04:52:28;;;;;;;11.90;6.68;;;;;;;3.85;100.00;101721.66;6177161;28;20050;-85
2023/01/03 04:55:30;;;;;;;13.93;7.43;;;;;;;3.86;100.00;101733.59;6188970;28;20121;-85
2023/01/03 04:58:31;;;;;;;10.43;6.82;;;;;;;3.94;100.00;101730.78;6189115;28;20042;-85
2023/01/03 05:01:33;;;;;;;12.50;7.22;;;;;;;4.04;100.00;101738.13;6189549;28;20049;-85
2023/01/03 05:04:35;;;;;;;13.65;7.93;;;;;;;4.22;100.00;101746.94;6189353;28;20428;-85
2023/01/03 05:07:40;;;;;;;13.35;7.00;;;;;;;4.43;100.00;101749.69;6184828;28;20042;-85
2023/01/03 05:10:41;;;;;;;17.30;7.75;;;;;;;4.53;100.00;101748.50;6169795;28;20046;-85
2023/01/03 05:13:43;;;;;;;13.05;7.68;;;;;;;4.53;100.00;101756.19;6189319;28;20042;-84
2023/01/03 05:16:45;;;;;;;15.15;8.25;;;;;;;4.61;100.00;101751.63;6188583;28;20054;-85
2023/01/03 05:26:32;;;;;;;16.30;8.45;;;;;;;5.00;100.00;101756.25;6188717;28;20089;-85
2023/01/03 05:29:35;;;;;;;16.90;8.70;;;;;;;5.10;100.00;101756.78;6188361;28;20039;-85
2023/01/03 05:32:37;;;;;;;21.10;10.00;;;;;;;5.18;100.00;101768.41;6185717;28;20529;-85
2023/01/03 05:35:44;;;;;;;18.80;9.75;;;;;;;5.31;100.00;101765.41;6186497;28;20046;-86
2023/01/03 05:38:46;;;;;;;21.70;10.13;;;;;;;5.30;100.00;101756.88;6178639;28;20043;-85
2023/01/03 05:42:03;;;;;;;15.25;8.45;;;;;;;5.28;100.00;101750.94;6187216;28;20499;-85
2023/01/03 05:45:05;;;;;;;15.70;9.20;;;;;;;5.08;100.00;101745.72;6187305;28;20441;-85
2023/01/03 05:48:08;;;;;;;17.23;9.20;;;;;;;4.89;100.00;101741.22;6165988;28;20038;-85
2023/01/03 05:51:10;;;;;;;16.13;9.27;;;;;;;4.83;100.00;101744.03;6177660;28;20043;-85
2023/01/03 05:54:14;;;;;;;17.65;8.93;;;;;;;4.88;100.00;101739.56;6169709;28;20042;-84
2023/01/03 05:57:16;;;;;;;16.42;9.73;;;;;;;4.90;100.00;101736.97;6187938;28;20078;-85
2023/01/03 06:00:19;;;;;;;16.10;9.07;;;;;;;5.05;100.00;101722.75;6178351;28;20045;-86
2023/01/03 06:03:20;;;;;;;19.10;9.40;;;;;;;5.22;100.00;101715.25;6179090;28;20046;-85
2023/01/03 06:06:22;;;;;;;16.25;9.57;;;;;;;5.39;100.00;101710.31;6185001;28;20057;-85
2023/01/03 06:09:24;;;;;;;16.67;9.48;;;;;;;5.53;100.00;101708.94;6187676;28;20511;-85
2023/01/03 06:12:28;;;;;;;17.98;10.05;;;;;;;5.54;100.00;101705.47;6185365;28;20482;-86
2023/01/03 06:15:30;;;;;;;16.85;9.35;;;;;;;5.56;100.00;101703.69;6178342;28;20504;-85
2023/01/03 06:18:33;;;;;;;17.27;9.50;;;;;;;5.57;100.00;101705.38;6184906;28;20053;-85
2023/01/03 06:21:35;;;;;;;19.92;10.77;;;;;;;5.53;100.00;101707.22;6151983;28;20724;-85
2023/01/03 06:24:37;;;;;;;19.40;9.80;;;;;;;5.61;100.00;101717.19;6179408;28;20503;-85
2023/01/03 06:27:38;;;;;;;15.93;9.50;;;;;;;5.63;100.00;101719.69;6186466;28;20077;-85
2023/01/03 06:30:41;;;;;;;19.35;9.55;;;;;;;5.64;100.00;101724.78;6173615;28;21481;-85
2023/01/03 06:33:43;;;;;;;15.07;8.68;;;;;;;5.68;100.00;101735.75;6173914;28;20042;-85
2023/01/03 06:36:45;;;;;;;17.33;10.02;;;;;;;5.69;100.00;101742.56;6181982;28;20039;-85
2023/01/03 06:39:47;;;;;;;16.40;9.63;;;;;;;5.69;100.00;101755.41;6167999;28;20045;-85
2023/01/03 06:42:49;;;;;;;17.63;9.82;;;;;;;5.67;100.00;101741.81;6184507;28;20073;-85
2023/01/03 06:55:58;;;;;;;14.30;9.55;;;;;;;4.65;100.00;101776.28;6191644;28;20070;-84
2023/01/03 06:58:59;;;;;;;16.70;9.38;;;;;;;4.53;100.00;101792.91;6192124;28;20080;-85
2023/01/03 07:02:03;;;;;;;16.63;10.00;;;;;;;4.50;100.00;101790.47;6172316;28;20046;-84
2023/01/03 07:05:05;;;;;;;16.88;9.45;;;;;;;4.67;100.00;101791.59;6187312;28;20837;-85
2023/01/03 07:08:07;;;;;;;15.30;9.25;;;;;;;4.86;100.00;101784.13;6188610;28;20405;-85
2023/01/03 07:11:08;;;;;;;14.95;9.40;;;;;;;4.97;100.00;101779.47;6190951;28;20400;-85
2023/01/03 07:14:10;;;;;;;18.88;9.55;;;;;;;5.08;100.00;101779.06;6173333;28;20049;-85
2023/01/03 07:17:15;;;;;;;16.98;10.25;;;;;;;5.05;100.00;101776.63;6191739;28;20030;-85
2023/01/03 07:20:17;;;;;;;16.70;9.63;;;;;;;5.01;100.00;101775.06;6190772;28;20490;-85
2023/01/03 07:23:19;;;;;;;15.55;9.32;;;;;;;4.92;100.00;101783.94;6180244;28;20420;-85
2023/01/03 07:26:23;;;;;;;16.98;9.45;;;;;;;4.81;100.00;101786.00;6173938;28;20437;-85
2023/01/03 07:29:24;;;;;;;17.90;9.40;;;;;;;4.81;100.00;101797.09;6190155;28;20042;-85
2023/01/03 07:32:26;;;;;;;18.17;10.48;;;;;;;4.93;100.00;101794.13;6191051;28;20041;-85
2023/01/03 07:35:31;;;;;;;17.15;10.32;;;;;;;5.05;100.00;101795.44;6190734;28;20088;-85
2023/01/03 07:38:33;;;;;;;16.27;9.57;;;;;;;5.15;100.00;101778.81;6189187;28;20543;-85
2023/01/03 07:44:55;;;;;;;18.10;10.52;;;;;;;4.75;100.00;101805.03;6191404;28;20038;-85
2023/01/03 07:47:57;;;;;;;22.35;10.90;;;;;;;4.62;100.00;101816.56;6185740;28;20524;-85
2023/01/03 07:51:00;;;;;;;17.55;10.35;;;;;;;4.48;100.00;101822.16;6189491;28;20050;-85
2023/01/03 07:54:01;;;;;;;18.58;10.18;;;;;;;4.49;100.00;101836.66;6189653;28;20053;-84
2023/01/03 07:57:03;;;;;;;18.23;10.15;;;;;;;4.52;100.00;101839.97;6189373;28;20210;-85
2023/01/03 08:00:05;;;;;;;19.40;10.77;;;;;;;4.81;100.00;101822.75;6190081;28;20596;-85
2023/01/03 08:03:14;;;;;;;17.15;10.43;;;;;;;4.77;100.00;101810.09;6182537;28;20198;-85
2023/01/03 08:06:23;;;;;;;20.10;10.93;;;;;;;4.80;100.00;101812.56;6182489;28;20046;-85
2023/01/03 08:16:09;;;;;;;19.92;11.02;;;;;;;4.36;100.00;101831.09;6179050;28;20043;-84
2023/01/03 08:19:11;;;;;;;19.55;10.75;;;;;;;4.28;100.00;101844.16;6188622;28;20073;-85
2023/01/03 08:22:12;;;;;;;17.95;10.27;;;;;;;4.25;100.00;101849.38;6178579;28;20451;-85
2023/01/03 08:25:14;;;;;;;18.10;10.27;;;;;;;4.21;100.00;101854.63;6189451;28;20046;-84
2023/01/03 08:28:16;;;;;;;19.02;10.40;;;;;;;4.17;100.00;101864.13;6188209;28;20039;-84
2023/01/03 08:31:21;;;;;;;17.02;10.45;;;;;;;4.15;100.00;101865.91;6190231;28;20492;-85
2023/01/03 08:34:26;;;;;;;18.52;10.55;;;;;;;4.17;100.00;101873.53;6165834;28;20085;-85
2023/01/03 08:37:31;;;;;;;19.23;10.10;;;;;;;4.13;100.00;101879.66;6183746;28;20046;-83
2023/01/03 08:40:36;;;;;;;22.23;12.68;;;;;;;4.15;100.00;101891.56;6180880;28;20109;-83
2023/01/03 08:43:45;;;;;;;19.77;11.48;;;;;;;4.31;100.00;101892.75;6166087;28;20039;-83
2023/01/03 08:46:50;;;;;;;19.52;10.82;;;;;;;4.34;100.00;101878.16;6182925;28;20042;-84
2023/01/03 08:49:52;;;;;;;20.80;11.45;;;;;;;4.32;100.00;101873.06;6175271;28;20445;-83
2023/01/03 08:52:53;;;;;;;21.73;12.23;;;;;;;4.28;100.00;101869.78;6178255;28;20050;-84
2023/01/03 08:55:55;;;;;;;21.92;11.40;;;;;;;4.30;100.00;101869.75;6171474;28;20047;-84
2023/01/03 08:58:57;;;;;;;23.45;12.10;;;;;;;4.28;100.00;101876.63;6185487;28;20042;-83
2023/01/03 09:02:00;;;;;;;19.92;11.57;;;;;;;4.27;100.00;101877.50;6179748;28;20458;-83
2023/01/03 09:05:03;;;;;;;20.00;12.15;;;;;;;4.24;100.00;101875.88;6179006;28;20039;-84
2023/01/03 09:08:04;;;;;;;21.98;12.90;;;;;;;4.28;100.00;101881.75;6187916;28;20160;-84
2023/01/03 09:11:07;;;;;;;23.65;12.00;;;;;;;4.34;100.00;101889.25;6178297;28;20386;-84
2023/01/03 09:14:09;;;;;;;20.17;11.35;;;;;;;4.46;100.00;101878.59;6186466;28;20050;-84
2023/01/03 09:17:11;;;;;;;19.80;11.20;;;;;;;4.46;100.00;101880.34;6181400;28;20084;-84
2023/01/03 09:20:15;;;;;;;23.95;12.82;;;;;;;4.47;100.00;101880.31;6177678;28;20046;-83
2023/01/03 09:23:17;;;;;;;22.13;12.32;;;;;;;4.56;100.00;101888.59;6187126;28;20046;-84
2023/01/03 09:26:18;;;;;;;22.58;12.48;;;;;;;4.54;100.00;101886.88;6187490;28;20121;-83
2023/01/03 09:29:20;;;;;;;21.88;11.73;;;;;;;4.50;100.00;101890.44;6171364;28;20050;-84
2023/01/03 09:32:22;;;;;;;23.48;11.48;;;;;;;4.50;100.00;101895.59;6188007;28;20042;-84
2023/01/03 09:35:23;;;;;;;19.30;10.77;;;;;;;4.49;100.00;101901.56;6178797;28;20046;-84
2023/01/03 09:38:25;;;;;;;20.35;11.48;;;;;;;4.51;100.00;101909.22;6175838;28;20049;-83
2023/01/03 09:41:27;;;;;;;17.58;10.48;;;;;;;4.59;100.00;101909.81;6159970;28;20042;-84
2023/01/03 09:44:29;;;;;;;18.23;10.73;;;;;;;4.59;100.00;101903.88;6173606;28;20520;-84
2023/01/03 09:47:35;;;;;;;21.88;10.65;;;;;;;4.66;100.00;101889.97;6172364;28;20169;-83
2023/01/03 09:50:37;;;;;;;20.60;10.13;;;;;;;4.75;100.00;101884.53;6160905;28;20106;-83
2023/01/03 10:05:05;;;;;;;18.23;8.95;;;;;;;4.76;100.00;101875.94;6178627;28;20168;-84
2023/01/03 10:08:18;;;;;;;15.13;9.68;;;;;;;4.75;100.00;101881.97;6178218;28;20074;-83
2023/01/03 10:11:35;;;;;;;17.30;9.57;;;;;;;4.75;100.00;101884.53;6178631;28;20049;-84
2023/01/03 10:14:52;;;;;;;16.80;9.23;;;;;;;4.74;100.00;101881.16;6184138;28;20132;-84
2023/01/03 10:18:02;;;;;;;14.48;8.45;;;;;;;4.76;100.00;101875.94;6179208;28;20042;-84
2023/01/03 10:21:10;;;;;;;12.93;8.55;;;;;;;4.80;100.00;101869.00;6180284;28;20038;-84
2023/01/03 10:24:19;;;;;;;14.65;7.80;;;;;;;4.85;100.00;101867.94;6184732;28;20482;-84
2023/01/03 10:27:24;;;;;;;16.83;9.13;;;;;;;4.84;100.00;101856.00;6183677;28;20162;-84
2023/01/03 10:30:42;;;;;;;14.98;9.10;;;;;;;4.86;100.00;101858.53;6185118;28;20038;-84
2023/01/03 10:33:47;;;;;;;15.80;8.93;;;;;;;4.89;100.00;101864.38;6184208;28;20038;-83
2023/01/03 10:36:48;;;;;;;11.93;7.47;;;;;;;4.88;100.00;101849.88;6184111;28;20079;-83
2023/01/03 10:40:01;;;;;;;14.18;7.70;;;;;;;4.90;100.00;101839.59;6183822;28;20181;-83
2023/01/03 10:43:17;;;;;;;11.93;6.78;;;;;;;4.93;100.00;101834.34;6185632;28;20046;-83
2023/01/03 10:46:20;;;;;;;12.50;7.05;;;;;;;5.00;100.00;101835.81;6182822;28;20045;-83
2023/01/03 10:49:27;;;;;;;9.13;5.65;;;;;;;5.20;100.00;101822.28;6161544;28;20038;-83
2023/01/03 10:52:39;;;;;;;12.68;7.57;;;;;;;5.29;100.00;101809.13;6176714;28;20050;-82
2023/01/03 10:55:57;;;;;;;12.95;7.40;;;;;;;5.32;100.00;101810.75;6182737;28;20042;-83
2023/01/03 10:59:13;;;;;;;16.13;8.82;;;;;;;5.34;100.00;101811.50;6168234;28;20039;-84
2023/01/03 11:02:17;;;;;;;13.25;7.68;;;;;;;5.36;100.00;101813.13;6166429;28;20512;-83
2023/01/03 11:05:23;;;;;;;12.35;7.90;;;;;;;5.38;100.00;101807.94;6172311;28;20050;-83
2023/01/03 11:08:44;;;;;;;12.23;7.40;;;;;;;5.42;100.00;101816.38;6185743;28;20050;-84
2023/01/03 11:11:53;;;;;;;13.05;7.35;;;;;;;5.46;100.00;101817.91;6189923;28;20090;-84
2023/01/03 11:14:57;;;;;;;12.95;7.05;;;;;;;5.46;100.00;101812.78;6185225;28;20052;-83
2023/01/03 11:18:05;;;;;;;14.02;7.63;;;;;;;5.46;100.00;101803.34;6189634;28;20039;-84
2023/01/03 11:21:22;;;;;;;11.45;7.22;;;;;;;5.50;100.00;101796.38;6183538;28;20100;-83
2023/01/03 11:24:52;;;;;;;12.73;5.95;;;;;;;5.59;100.00;101796.03;6172978;28;20042;-83
2023/01/03 11:28:32;;;;;;;9.95;6.22;;;;;;;5.59;100.00;101785.78;6182839;28;20042;-83
2023/01/03 11:32:11;;;;;;;10.30;6.07;;;;;;;5.65;100.00;101784.69;6082318;29;20595;-83
2023/01/03 11:35:29;;;;;;;11.07;5.55;;;;;;;5.74;100.00;101787.75;6081990;29;20538;-83
2023/01/03 11:39:09;;;;;;;8.15;5.18;;;;;;;5.79;100.00;101785.00;6067018;29;20049;-83
2023/01/03 11:42:36;;;;;;;8.85;5.15;;;;;;;5.81;100.00;101773.78;6079081;29;20060;-83
2023/01/03 11:46:09;;;;;;;8.38;4.78;;;;;;;5.89;100.00;101768.34;6087489;29;20671;-84
2023/01/03 11:49:27;;;;;;;8.90;5.20;;;;;;;5.96;100.00;101769.81;6085033;29;20072;-83
2023/01/03 11:52:38;;;;;;;6.63;4.50;;;;;;;5.99;100.00;101761.13;6074948;29;20520;-83
2023/01/03 11:56:01;;;;;;;8.75;4.90;;;;;;;6.05;100.00;101748.03;6080492;29;20522;-84
2023/01/03 11:59:15;;;;;;;7.82;4.40;;;;;;;6.10;100.00;101750.41;6087440;29;20403;-84
2023/01/03 12:02:35;;;;;;;7.05;4.45;;;;;;;6.15;100.00;101744.19;6064220;29;20052;-83
2023/01/03 12:05:44;;;;;;;7.73;4.40;;;;;;;6.17;100.00;101744.94;6087859;28;20283;-83
2023/01/03 12:08:58;;;;;;;8.02;4.07;;;;;;;6.21;100.00;101736.22;6187219;28;20285;-83
2023/01/03 12:12:15;;;;;;;7.03;4.72;;;;;;;6.24;100.00;101740.41;6186744;28;20146;-83
2023/01/03 12:15:43;;;;;;;9.38;4.72;;;;;;;6.29;100.00;101746.19;6184807;28;20132;-84
2023/01/03 12:18:54;;;;;;;8.10;4.40;;;;;;;6.46;100.00;101748.91;6184015;28;20096;-84
2023/01/03 12:22:04;;;;;;;6.70;4.57;;;;;;;6.76;100.00;101734.75;6187769;28;20096;-83
2023/01/03 12:25:21;;;;;;;6.80;4.70;;;;;;;7.08;100.00;101729.06;6187552;28;20077;-84
2023/01/03 12:28:38;;;;;;;7.95;4.68;;;;;;;7.31;100.00;101733.16;6186893;28;20047;-83
2023/01/03 12:31:58;;;;;;;8.02;4.40;;;;;;;7.46;100.00;101718.72;6178249;28;20416;-83
2023/01/03 12:35:14;;;;;;;5.82;3.80;;;;;;;7.59;100.00;101718.16;6167047;28;20038;-83
2023/01/03 12:38:24;;;;;;;6.20;4.05;;;;;;;7.71;100.00;101709.84;6177032;28;20614;-83
2023/01/03 12:41:33;;;;;;;8.27;4.97;;;;;;;7.87;100.00;101700.44;6175358;28;20425;-84
2023/01/03 12:44:46;;;;;;;5.47;3.65;;;;;;;8.11;100.00;101693.25;6168463;28;20049;-83
2023/01/03 12:48:08;;;;;;;6.45;3.20;;;;;;;8.37;100.00;101688.53;6172557;28;20121;-83
2023/01/03 12:51:12;;;;;;;7.70;3.28;;;;;;;8.51;100.00;101683.53;6178267;28;20046;-84
2023/01/03 12:54:41;;;;;;;5.40;2.90;;;;;;;8.60;100.00;101687.41;6154928;28;20050;-84
2023/01/03 12:58:01;;;;;;;3.58;3.10;;;;;;;8.65;100.00;101688.00;6182517;28;20501;-84
2023/01/03 13:01:16;;;;;;;3.17;2.47;;;;;;;8.74;100.00;101677.16;6172920;28;20500;-84
2023/01/03 13:04:23;;;;;;;5.15;2.95;;;;;;;8.77;100.00;101673.56;6172512;28;20058;-83
2023/01/03 13:07:29;;;;;;;6.53;3.28;;;;;;;8.78;100.00;101677.84;6170056;28;20066;-84
2023/01/03 13:10:34;;;;;;;4.53;2.40;;;;;;;8.84;100.00;101675.78;6170562;28;20464;-83
2023/01/03 13:13:36;;;;;;;6.13;2.38;;;;;;;8.86;100.00;101670.53;6149409;28;20408;-83
2023/01/03 13:16:44;;;;;;;6.63;2.55;;;;;;;8.69;100.00;101671.41;6168424;28;20058;-83
2023/01/03 13:20:29;;;;;;;5.00;2.58;;;;;;;8.48;100.00;101662.22;6167086;28;20050;-82
2023/01/03 13:23:40;;;;;;;4.03;2.10;;;;;;;8.24;100.00;101670.25;6156848;28;20074;-83
2023/01/03 13:27:27;;;;;;;3.03;2.10;;;;;;;8.15;100.00;101668.16;6172756;28;20039;-84
2023/01/03 13:30:37;;;;;;;3.55;2.28;;;;;;;8.13;100.00;101669.97;6176214;28;20409;-83
2023/01/03 13:33:52;;;;;;;5.80;2.22;;;;;;;8.16;100.00;101670.66;6173371;28;20043;-83
2023/01/03 13:37:06;;;;;;;4.72;2.10;;;;;;;8.27;100.00;101664.94;6175039;28;20638;-84
2023/01/03 13:40:28;;;;;;;7.82;2.58;;;;;;;8.66;100.00;101658.66;6172643;28;20050;-83
2023/01/03 13:43:52;;;;;;;6.60;2.55;;;;;;;8.95;100.00;101669.22;6171129;28;20053;-84
2023/01/03 13:46:55;;;;;;;4.72;2.33;;;;;;;8.91;100.00;101667.69;6176929;28;20046;-84
2023/01/03 13:49:57;;;;;;;3.85;2.10;;;;;;;8.84;100.00;101669.75;6177669;28;20042;-83
2023/01/03 13:53:08;;;;;;;4.88;2.30;;;;;;;8.81;100.00;101665.59;6170931;28;20042;-84
2023/01/03 13:56:16;;;;;;;5.38;2.70;;;;;;;8.78;100.00;101668.34;6178311;28;20043;-84
2023/01/03 13:59:41;;;;;;;4.85;2.25;;;;;;;8.70;100.00;101665.34;6182610;28;20043;-84
2023/01/03 14:03:02;;;;;;;4.32;2.03;;;;;;;8.58;100.00;101658.25;6178441;28;20075;-84
2023/01/03 14:06:07;;;;;;;5.38;2.15;;;;;;;8.49;100.00;101656.97;6186509;28;20539;-84
2023/01/03 14:09:21;;;;;;;3.53;1.98;;;;;;;8.42;100.00;101658.19;6179985;28;20489;-84
2023/01/03 14:12:54;;;;;;;4.22;1.95;;;;;;;8.34;100.00;101661.13;6178677;28;20497;-84
2023/01/03 14:16:29;;;;;;;3.20;1.98;;;;;;;8.22;100.00;101664.34;6169371;28;20105;-84
2023/01/03 14:19:34;;;;;;;2.95;1.90;;;;;;;8.17;100.00;101669.75;6179373;28;20042;-84
2023/01/03 14:22:47;;;;;;;3.90;2.03;;;;;;;8.15;100.00;101675.91;6187536;28;20508;-84
2023/01/03 14:25:50;;;;;;;5.63;1.63;;;;;;;8.22;100.00;101679.81;6187113;28;20128;-84
2023/01/03 14:28:53;;;;;;;4.35;1.73;;;;;;;8.34;100.00;101683.53;6186200;28;20038;-84
2023/01/03 14:31:55;;;;;;;4.28;1.88;;;;;;;8.33;100.00;101677.53;6185490;28;20042;-83
2023/01/03 14:34:57;;;;;;;5.28;2.10;;;;;;;8.30;100.00;101680.28;6183851;28;20053;-85
2023/01/03 14:37:59;;;;;;;5.88;2.22;;;;;;;8.17;100.00;101692.97;6185011;28;20185;-84
2023/01/03 14:41:25;;;;;;;3.90;2.03;;;;;;;8.05;100.00;101690.13;6164011;28;20654;-84
2023/01/03 14:44:33;;;;;;;3.33;1.92;;;;;;;7.90;100.00;101695.16;6176450;28;20042;-84
2023/01/03 14:47:38;;;;;;;6.53;2.30;;;;;;;7.79;100.00;101697.41;6158261;28;20579;-84
2023/01/03 14:50:41;;;;;;;3.58;1.88;;;;;;;7.72;100.00;101696.03;6176639;28;20047;-84
2023/01/03 14:53:45;;;;;;;4.72;2.10;;;;;;;7.66;100.00;101697.19;6185417;28;20109;-85
2023/01/03 14:56:50;;;;;;;4.30;2.00;;;;;;;7.62;100.00;101697.41;6157840;28;20525;-84
2023/01/03 14:59:55;;;;;;;4.28;2.00;;;;;;;7.57;100.00;101692.44;6158871;28;20047;-84
2023/01/03 15:02:57;;;;;;;2.72;1.88;;;;;;;7.50;100.00;101701.38;6162567;28;20046;-84
2023/01/03 15:05:59;;;;;;;4.32;2.10;;;;;;;7.41;100.00;101710.38;6181906;28;20096;-84
2023/01/03 15:09:18;;;;;;;3.42;2.00;;;;;;;7.35;100.00;101715.81;6183744;28;20408;-84
2023/01/03 15:12:20;;;;;;;4.18;1.98;;;;;;;7.26;100.00;101708.53;6173285;28;20127;-84
2023/01/03 15:15:27;;;;;;;2.42;1.83;;;;;;;7.20;100.00;101713.94;6184441;28;20096;-84
2023/01/03 15:18:35;;;;;;;4.40;1.65;;;;;;;7.19;100.00;101704.56;6180161;28;20046;-84
2023/01/03 15:21:40;;;;;;;3.75;1.95;;;;;;;7.15;100.00;101710.75;6152601;28;20514;-83
2023/01/03 15:24:45;;;;;;;4.10;2.15;;;;;;;7.14;100.00;101707.34;6179181;28;20500;-84
2023/01/03 15:27:49;;;;;;;4.38;1.65;;;;;;;7.10;100.00;101713.53;6168583;28;20627;-85
2023/01/03 15:30:53;;;;;;;2.97;1.77;;;;;;;7.02;100.00;101705.31;6158729;28;20302;-84
2023/01/03 15:34:13;;;;;;;2.30;1.80;;;;;;;7.02;100.00;101713.03;6175054;28;20045;-84
2023/01/03 15:37:22;;;;;;;3.47;1.60;;;;;;;7.02;100.00;101719.03;6153692;28;20412;-84
2023/01/03 15:40:25;;;;;;;2.20;1.75;;;;;;;7.00;100.00;101723.41;6150831;28;20338;-84